createdAt,value
2019-04-20T21:51:55.395Z,1018.94
2019-04-20T21:52:51.969Z,1018.90
2019-04-20T21:54:40.703Z,1018.95
2019-04-20T21:55:41.865Z,1018.91
2019-04-20T21:57:42.130Z,1018.98
2019-04-20T21:58:43.556Z,1018.96
2019-04-20T22:00:39.143Z,1018.96
2019-04-20T22:01:34.502Z,1018.99
2019-04-20T22:02:32.541Z,1018.88
2019-04-20T22:03:29.993Z,1018.96
2019-04-20T22:04:29.659Z,1018.96
2019-04-20T22:05:30.356Z,1018.91
2019-04-20T22:06:29.640Z,1018.92
2019-04-20T22:07:30.481Z,1018.96
2019-04-20T22:08:30.471Z,1018.97
2019-04-20T22:09:34.524Z,1018.88
2019-04-20T22:10:32.852Z,1018.87
2019-04-20T22:11:29.675Z,1018.94
2019-04-20T22:12:39.503Z,1018.94
2019-04-20T22:13:36.426Z,1018.92
2019-04-20T22:14:32.269Z,1018.93
2019-04-20T22:15:32.993Z,1018.90
2019-04-20T22:16:36.542Z,1018.97
2019-04-20T22:17:33.177Z,1018.90
2019-04-20T22:18:31.869Z,1018.95
2019-04-20T22:19:38.723Z,1018.94
2019-04-20T22:20:38.610Z,1018.92
2019-04-20T22:22:47.113Z,1018.93
2019-04-20T22:23:43.262Z,1018.92
2019-04-20T22:24:44.969Z,1018.92
2019-04-20T22:25:47.466Z,1018.92
2019-04-20T22:26:39.434Z,1018.94
2019-04-20T22:27:34.346Z,1018.93
2019-04-20T22:28:29.814Z,1018.93
2019-04-20T22:29:30.258Z,1018.90
2019-04-20T22:30:30.300Z,1018.94
2019-04-20T22:31:30.018Z,1018.92
2019-04-20T22:32:30.073Z,1018.94
2019-04-20T22:33:36.227Z,1018.94
2019-04-20T22:34:30.199Z,1018.95
2019-04-20T22:35:31.238Z,1018.89
2019-04-20T22:36:35.564Z,1018.90
2019-04-20T22:37:30.500Z,1018.89
2019-04-20T22:38:30.820Z,1018.89
2019-04-20T22:39:36.814Z,1018.88
2019-04-20T22:40:33.058Z,1018.87
2019-04-20T22:41:30.158Z,1018.84
2019-04-20T22:42:31.356Z,1018.85
2019-04-20T22:43:33.904Z,1018.84
2019-04-20T22:44:32.387Z,1018.82
2019-04-20T22:45:29.622Z,1018.83
2019-04-20T22:46:33.683Z,1018.79
2019-04-20T22:47:32.571Z,1018.84
2019-04-20T22:48:29.534Z,1018.78
2019-04-20T22:49:47.299Z,1018.78
2019-04-20T22:50:44.858Z,1018.82
2019-04-20T22:51:44.011Z,1018.75
2019-04-20T22:53:44.206Z,1018.67
2019-04-20T22:54:45.920Z,1018.74
2019-04-20T22:56:00.351Z,1018.71
2019-04-20T22:56:43.489Z,1018.75
2019-04-20T22:57:43.318Z,1018.76
2019-04-20T22:58:44.789Z,1018.74
2019-04-20T22:59:38.407Z,1018.76
2019-04-20T23:00:37.313Z,1018.72
2019-04-20T23:01:37.543Z,1018.73
2019-04-20T23:02:30.227Z,1018.79
2019-04-20T23:03:30.568Z,1018.79
2019-04-20T23:04:30.759Z,1018.70
2019-04-20T23:05:29.371Z,1018.73
2019-04-20T23:06:35.434Z,1018.73
2019-04-20T23:07:30.659Z,1018.74
2019-04-20T23:08:30.698Z,1018.76
2019-04-20T23:09:32.850Z,1018.74
2019-04-20T23:10:34.753Z,1018.76
2019-04-20T23:11:33.274Z,1018.71
2019-04-20T23:12:30.391Z,1018.73
2019-04-20T23:13:35.040Z,1018.72
2019-04-20T23:14:29.334Z,1018.76
2019-04-20T23:15:30.154Z,1018.75
2019-04-20T23:16:37.836Z,1018.73
2019-04-20T23:17:35.971Z,1018.76
2019-04-20T23:18:29.322Z,1018.73
2019-04-20T23:19:38.245Z,1018.73
2019-04-20T23:20:32.640Z,1018.70
2019-04-20T23:21:29.964Z,1018.70
2019-04-20T23:22:36.909Z,1018.68
2019-04-20T23:23:30.982Z,1018.67
2019-04-20T23:24:29.293Z,1018.67
2019-04-20T23:25:29.348Z,1018.70
2019-04-20T23:26:33.568Z,1018.66
2019-04-20T23:27:31.739Z,1018.71
2019-04-20T23:28:29.283Z,1018.67
2019-04-20T23:29:34.000Z,1018.68
2019-04-20T23:30:33.965Z,1018.65
2019-04-20T23:31:30.749Z,1018.63
2019-04-20T23:32:30.262Z,1018.59
2019-04-20T23:33:29.854Z,1018.62
2019-04-20T23:34:32.374Z,1018.60
2019-04-20T23:35:30.343Z,1018.55
2019-04-20T23:36:36.497Z,1018.55
2019-04-20T23:37:32.963Z,1018.59
2019-04-20T23:38:30.548Z,1018.60
2019-04-20T23:39:35.398Z,1018.59
2019-04-20T23:40:29.869Z,1018.51
2019-04-20T23:41:29.228Z,1018.53
2019-04-20T23:42:33.644Z,1018.49
2019-04-20T23:43:33.368Z,1018.49
2019-04-20T23:44:29.371Z,1018.48
2019-04-20T23:45:38.569Z,1018.48
2019-04-20T23:46:31.386Z,1018.43
2019-04-20T23:47:30.083Z,1018.41
2019-04-20T23:48:34.852Z,1018.41
2019-04-20T23:49:37.575Z,1018.42
2019-04-20T23:50:47.669Z,1018.40
2019-04-20T23:51:49.347Z,1018.42
2019-04-20T23:52:49.088Z,1018.37
2019-04-20T23:53:43.810Z,1018.39
2019-04-20T23:54:33.138Z,1018.41
2019-04-20T23:55:29.757Z,1018.40
2019-04-20T23:56:29.964Z,1018.38
2019-04-20T23:57:29.394Z,1018.37
2019-04-20T23:58:30.902Z,1018.37
2019-04-20T23:59:34.321Z,1018.34
